createdAt,value
2015-03-25T00:00:07.282Z,18.2
2015-03-25T00:00:25.703Z,18.2
2015-03-25T00:00:44.080Z,18.2
2015-03-25T00:01:02.549Z,18.2
2015-03-25T00:01:20.955Z,18.2
2015-03-25T00:01:39.489Z,18.2
2015-03-25T00:01:58.051Z,18.2
2015-03-25T00:02:16.442Z,18.2
2015-03-25T00:02:34.832Z,18.2
2015-03-25T00:02:53.397Z,18.2
2015-03-25T00:03:11.819Z,18.2
2015-03-25T00:03:30.366Z,18.1
2015-03-25T00:03:48.745Z,18.1
2015-03-25T00:04:07.182Z,18.2
2015-03-25T00:04:25.651Z,18.1
2015-03-25T00:04:44.075Z,18.1
2015-03-25T00:05:02.450Z,18.1
2015-03-25T00:05:20.809Z,18.1
2015-03-25T00:05:39.498Z,18.1
2015-03-25T00:05:57.857Z,18.1
2015-03-25T00:06:16.591Z,18.1
2015-03-25T00:06:35.232Z,18.1
2015-03-25T00:06:52.954Z,18.1
2015-03-25T00:07:11.532Z,18.1
2015-03-25T00:07:29.907Z,18.1
2015-03-25T00:07:48.331Z,18.1
2015-03-25T00:08:06.768Z,18.1
2015-03-25T00:08:25.253Z,18.1
2015-03-25T00:08:43.646Z,18.1
2015-03-25T00:09:02.099Z,18.1
2015-03-25T00:09:20.599Z,18.1
2015-03-25T00:09:39.070Z,18.1
2015-03-25T00:09:57.773Z,18.1
2015-03-25T00:10:16.242Z,18.1
2015-03-25T00:10:34.601Z,18.1
2015-03-25T00:10:53.072Z,18.1
2015-03-25T00:11:11.619Z,18.1
2015-03-25T00:11:30.025Z,18.1
2015-03-25T00:11:48.402Z,18.1
2015-03-25T00:12:06.996Z,18.1
2015-03-25T00:12:25.480Z,18.1
2015-03-25T00:12:43.952Z,18.1
2015-03-25T00:13:02.327Z,18.1
2015-03-25T00:13:20.671Z,18.1
2015-03-25T00:13:39.049Z,18
2015-03-25T00:13:57.705Z,18
2015-03-25T00:14:16.065Z,18
2015-03-25T00:14:34.611Z,18
2015-03-25T00:14:52.988Z,18
2015-03-25T00:15:11.457Z,18
2015-03-25T00:15:29.863Z,18
2015-03-25T00:15:48.365Z,18
2015-03-25T00:16:06.756Z,18
2015-03-25T00:16:25.178Z,18
2015-03-25T00:16:43.539Z,18
2015-03-25T00:17:01.914Z,18
2015-03-25T00:17:20.274Z,18
2015-03-25T00:17:38.633Z,18
2015-03-25T00:17:57.260Z,18
2015-03-25T00:18:15.698Z,18
2015-03-25T00:18:34.088Z,18
2015-03-25T00:18:52.450Z,18
2015-03-25T00:19:10.825Z,18
2015-03-25T00:19:29.465Z,18
2015-03-25T00:19:47.968Z,18
2015-03-25T00:20:06.374Z,18
2015-03-25T00:20:24.921Z,18
2015-03-25T00:20:43.471Z,18
2015-03-25T00:21:02.018Z,18
2015-03-25T00:21:20.784Z,18
2015-03-25T00:21:39.143Z,18
2015-03-25T00:21:57.629Z,17.9
2015-03-25T00:22:16.098Z,18
2015-03-25T00:22:34.473Z,17.9
2015-03-25T00:22:53.023Z,17.9
2015-03-25T00:23:11.414Z,17.9
2015-03-25T00:23:29.929Z,17.9
2015-03-25T00:23:48.415Z,17.9
2015-03-25T00:24:06.868Z,17.9
2015-03-25T00:24:25.524Z,17.9
2015-03-25T00:24:44.102Z,17.9
2015-03-25T00:25:02.480Z,17.9
2015-03-25T00:25:20.840Z,17.9
2015-03-25T00:25:39.621Z,17.9
2015-03-25T00:25:58.029Z,17.9
2015-03-25T00:26:16.592Z,17.9
2015-03-25T00:26:34.951Z,17.9
2015-03-25T00:26:53.563Z,17.9
2015-03-25T00:27:11.923Z,17.9
2015-03-25T00:27:30.548Z,17.9
2015-03-25T00:27:49.143Z,17.9
2015-03-25T00:28:07.503Z,17.9
2015-03-25T00:28:25.878Z,17.9
2015-03-25T00:28:44.378Z,17.9
2015-03-25T00:29:03.099Z,17.9
2015-03-25T00:29:21.458Z,17.9
2015-03-25T00:29:39.880Z,17.9
2015-03-25T00:29:58.242Z,17.9
2015-03-25T00:30:16.977Z,17.9
2015-03-25T00:30:35.414Z,17.8
2015-03-25T00:30:53.946Z,17.8
2015-03-25T00:31:12.509Z,17.8
2015-03-25T00:31:30.884Z,17.8
2015-03-25T00:31:48.637Z,17.8
2015-03-25T00:32:07.012Z,17.8
2015-03-25T00:32:25.777Z,17.8
2015-03-25T00:32:44.152Z,17.8
2015-03-25T00:33:02.718Z,17.8
2015-03-25T00:33:21.109Z,17.8
2015-03-25T00:33:39.702Z,17.8
2015-03-25T00:33:57.423Z,17.8
2015-03-25T00:34:15.876Z,17.8
2015-03-25T00:34:34.251Z,17.8
2015-03-25T00:34:52.613Z,17.8
2015-03-25T00:35:10.972Z,17.8
2015-03-25T00:35:29.363Z,17.8
2015-03-25T00:35:47.724Z,17.8
2015-03-25T00:36:06.161Z,17.8
2015-03-25T00:36:24.599Z,17.8
2015-03-25T00:36:43.083Z,17.8
2015-03-25T00:37:01.163Z,17.8
2015-03-25T00:37:18.757Z,17.7
2015-03-25T00:37:37.163Z,17.7
2015-03-25T00:37:54.900Z,17.7
2015-03-25T00:38:13.306Z,17.7
2015-03-25T00:38:31.697Z,17.7
2015-03-25T00:38:50.090Z,17.7
2015-03-25T00:39:08.465Z,17.7
2015-03-25T00:39:26.872Z,17.7
2015-03-25T00:39:45.278Z,17.7
2015-03-25T00:40:03.671Z,17.7
2015-03-25T00:40:22.062Z,17.7
2015-03-25T00:40:40.437Z,17.7
2015-03-25T00:40:59.002Z,17.7
2015-03-25T00:41:17.361Z,17.7
2015-03-25T00:41:35.767Z,17.7
2015-03-25T00:41:54.300Z,17.7
2015-03-25T00:42:12.707Z,17.7
2015-03-25T00:42:31.332Z,17.7
2015-03-25T00:42:49.943Z,17.7
2015-03-25T00:43:08.412Z,17.7
2015-03-25T00:43:26.787Z,17.7
2015-03-25T00:43:45.224Z,17.7
2015-03-25T00:44:03.790Z,17.7
2015-03-25T00:44:22.212Z,17.7
2015-03-25T00:44:40.774Z,17.7
2015-03-25T00:44:59.183Z,17.7
2015-03-25T00:45:17.871Z,17.7
2015-03-25T00:45:37.293Z,17.7
2015-03-25T00:45:54.998Z,17.7
2015-03-25T00:46:13.482Z,17.7
2015-03-25T00:46:32.014Z,17.7
2015-03-25T00:46:50.576Z,17.7
2015-03-25T00:47:09.156Z,17.7
2015-03-25T00:47:27.625Z,17.7
2015-03-25T00:47:46.094Z,17.7
2015-03-25T00:48:04.768Z,17.7
2015-03-25T00:48:23.236Z,17.7
2015-03-25T00:48:41.611Z,17.7
2015-03-25T00:49:02.036Z,17.7
2015-03-25T00:49:20.536Z,17.7
2015-03-25T00:49:38.896Z,17.7
2015-03-25T00:49:57.506Z,17.7
2015-03-25T00:50:15.897Z,17.7
2015-03-25T00:50:34.272Z,17.7
2015-03-25T00:50:52.790Z,17.7
2015-03-25T00:51:11.165Z,17.7
2015-03-25T00:51:28.900Z,17.7
2015-03-25T00:51:47.290Z,17.7
2015-03-25T00:52:05.871Z,17.7
2015-03-25T00:52:24.278Z,17.7
2015-03-25T00:52:42.637Z,17.7
2015-03-25T00:53:01.108Z,17.7
2015-03-25T00:53:19.467Z,17.7
2015-03-25T00:53:37.264Z,17.7
2015-03-25T00:53:55.625Z,17.6
2015-03-25T00:54:14.110Z,17.6
2015-03-25T00:54:32.469Z,17.6
2015-03-25T00:54:50.875Z,17.6
2015-03-25T00:55:09.252Z,17.6
2015-03-25T00:55:27.815Z,17.6
2015-03-25T00:55:46.237Z,17.6
2015-03-25T00:56:04.739Z,17.6
2015-03-25T00:56:23.161Z,17.6
2015-03-25T00:56:41.629Z,17.6
2015-03-25T00:57:00.070Z,17.6
2015-03-25T00:57:18.507Z,17.6
2015-03-25T00:57:36.914Z,17.6
2015-03-25T00:57:55.351Z,17.6
2015-03-25T00:58:13.870Z,17.6
2015-03-25T00:58:32.323Z,17.6
2015-03-25T00:58:50.901Z,17.6
2015-03-25T00:59:09.465Z,17.6
2015-03-25T00:59:27.856Z,17.6
2015-03-25T00:59:46.419Z,17.6
2015-03-25T01:00:04.858Z,17.6
2015-03-25T01:00:23.249Z,17.6
2015-03-25T01:00:41.842Z,17.6
2015-03-25T01:01:00.314Z,17.6
2015-03-25T01:01:18.736Z,17.6
2015-03-25T01:01:37.330Z,17.6
2015-03-25T01:01:55.736Z,17.6
2015-03-25T01:02:14.143Z,17.6
2015-03-25T01:02:32.534Z,17.6
2015-03-25T01:02:51.175Z,17.6
2015-03-25T01:03:09.553Z,17.6
2015-03-25T01:03:27.959Z,17.6
2015-03-25T01:03:46.662Z,17.6
2015-03-25T01:04:05.055Z,17.6
2015-03-25T01:04:23.586Z,17.6
2015-03-25T01:04:41.539Z,17.5
2015-03-25T01:04:59.961Z,17.6
2015-03-25T01:05:18.636Z,17.6
2015-03-25T01:05:37.136Z,17.6
2015-03-25T01:05:54.839Z,17.5
2015-03-25T01:06:13.216Z,17.6
2015-03-25T01:06:31.606Z,17.6
2015-03-25T01:06:49.966Z,17.6
2015-03-25T01:07:08.343Z,17.5
2015-03-25T01:07:26.874Z,17.5
2015-03-25T01:07:45.233Z,17.5
2015-03-25T01:08:04.093Z,17.5
2015-03-25T01:08:22.690Z,17.5
2015-03-25T01:08:41.252Z,17.5
2015-03-25T01:08:59.674Z,17.5
2015-03-25T01:09:18.082Z,17.5
2015-03-25T01:09:36.442Z,17.5
2015-03-25T01:09:55.020Z,17.5
2015-03-25T01:10:13.584Z,17.5
2015-03-25T01:10:31.959Z,17.5
2015-03-25T01:10:50.553Z,17.5
2015-03-25T01:11:09.009Z,17.5
2015-03-25T01:11:27.447Z,17.5
2015-03-25T01:11:45.884Z,17.5
2015-03-25T01:12:04.290Z,17.5
2015-03-25T01:12:22.699Z,17.5
2015-03-25T01:12:41.152Z,17.5
2015-03-25T01:12:59.589Z,17.5
2015-03-25T01:13:17.951Z,17.5
2015-03-25T01:13:36.466Z,17.5
2015-03-25T01:13:55.122Z,17.5
2015-03-25T01:14:13.485Z,17.5
2015-03-25T01:14:31.985Z,17.5
2015-03-25T01:14:50.422Z,17.5
2015-03-25T01:15:08.784Z,17.5
2015-03-25T01:15:27.206Z,17.5
2015-03-25T01:15:45.002Z,17.5
2015-03-25T01:16:03.424Z,17.5
2015-03-25T01:16:22.051Z,17.5
2015-03-25T01:16:40.426Z,17.5
2015-03-25T01:16:58.973Z,17.5
2015-03-25T01:17:17.350Z,17.4
2015-03-25T01:17:36.272Z,17.4
2015-03-25T01:17:54.835Z,17.5
2015-03-25T01:18:13.291Z,17.5
2015-03-25T01:18:31.713Z,17.4
2015-03-25T01:18:50.181Z,17.4
2015-03-25T01:19:08.697Z,17.4
2015-03-25T01:19:27.059Z,17.4
2015-03-25T01:19:45.669Z,17.4
2015-03-25T01:20:04.028Z,17.4
2015-03-25T01:20:22.420Z,17.4
2015-03-25T01:20:40.873Z,17.4
2015-03-25T01:20:59.623Z,17.4
2015-03-25T01:21:18.001Z,17.4
2015-03-25T01:21:36.376Z,17.4
2015-03-25T01:21:54.829Z,17.4
2015-03-25T01:22:13.253Z,17.4
2015-03-25T01:22:31.612Z,17.4
2015-03-25T01:22:49.503Z,17.4
2015-03-25T01:23:08.018Z,17.4
2015-03-25T01:23:26.428Z,17.4
2015-03-25T01:23:45.053Z,17.4
2015-03-25T01:24:03.584Z,17.4
2015-03-25T01:24:22.008Z,17.4
2015-03-25T01:24:40.758Z,17.4
2015-03-25T01:24:59.133Z,17.4
2015-03-25T01:25:17.480Z,17.4
2015-03-25T01:25:36.026Z,17.4
2015-03-25T01:25:54.480Z,17.4
2015-03-25T01:26:12.918Z,17.4
2015-03-25T01:26:31.293Z,17.4
2015-03-25T01:26:49.731Z,17.4
2015-03-25T01:27:08.340Z,17.4
2015-03-25T01:27:26.717Z,17.4
2015-03-25T01:27:45.342Z,17.4
2015-03-25T01:28:03.701Z,17.4
2015-03-25T01:28:22.470Z,17.4
2015-03-25T01:28:40.876Z,17.4
2015-03-25T01:28:59.251Z,17.4
2015-03-25T01:29:16.956Z,17.4
2015-03-25T01:29:35.534Z,17.4
2015-03-25T01:29:53.909Z,17.3
2015-03-25T01:30:12.347Z,17.3
2015-03-25T01:30:30.709Z,17.3
2015-03-25T01:30:49.116Z,17.3
2015-03-25T01:31:07.725Z,17.3
2015-03-25T01:31:26.211Z,17.3
2015-03-25T01:31:44.696Z,17.3
2015-03-25T01:32:03.055Z,17.3
2015-03-25T01:32:21.620Z,17.3
2015-03-25T01:32:40.135Z,17.3
2015-03-25T01:32:58.510Z,17.3
2015-03-25T01:33:16.918Z,17.3
2015-03-25T01:33:35.606Z,17.3
2015-03-25T01:33:54.012Z,17.3
2015-03-25T01:34:12.434Z,17.3
2015-03-25T01:34:30.906Z,17.3
2015-03-25T01:34:49.250Z,17.2
2015-03-25T01:35:07.906Z,17.2
2015-03-25T01:35:26.503Z,17.2
2015-03-25T01:35:44.924Z,17.2
2015-03-25T01:36:03.612Z,17.2
2015-03-25T01:36:22.083Z,17.2
2015-03-25T01:36:40.442Z,17.2
2015-03-25T01:36:58.817Z,17.2
2015-03-25T01:37:17.428Z,17.1
2015-03-25T01:37:36.069Z,17.1
2015-03-25T01:37:54.460Z,17.2
2015-03-25T01:38:13.022Z,17.1
2015-03-25T01:38:31.555Z,17.1
2015-03-25T01:38:50.071Z,17.1
2015-03-25T01:39:08.430Z,17.1
2015-03-25T01:39:26.823Z,17.1
2015-03-25T01:39:45.214Z,17.1
2015-03-25T01:40:03.589Z,17.2
2015-03-25T01:40:21.998Z,17.2
2015-03-25T01:40:40.482Z,17.2
2015-03-25T01:40:58.826Z,17.2
2015-03-25T01:41:17.234Z,17.2
2015-03-25T01:41:35.891Z,17.2
2015-03-25T01:41:54.437Z,17.2
2015-03-25T01:42:12.844Z,17.2
2015-03-25T01:42:31.205Z,17.2
2015-03-25T01:42:49.783Z,17.2
2015-03-25T01:43:08.346Z,17.2
2015-03-25T01:43:26.911Z,17.2
2015-03-25T01:43:45.380Z,17.2
2015-03-25T01:44:03.833Z,17.2
2015-03-25T01:44:22.507Z,17.2
2015-03-25T01:44:40.866Z,17.2
2015-03-25T01:44:59.304Z,17.2
2015-03-25T01:45:17.697Z,17.2
2015-03-25T01:45:36.151Z,17.2
2015-03-25T01:45:54.776Z,17.2
2015-03-25T01:46:13.260Z,17.2
2015-03-25T01:46:31.621Z,17.2
2015-03-25T01:46:50.168Z,17.1
2015-03-25T01:47:08.590Z,17.1
2015-03-25T01:47:26.967Z,17.1
2015-03-25T01:47:45.373Z,17.1
2015-03-25T01:48:04.108Z,17.1
2015-03-25T01:48:22.485Z,17.1
2015-03-25T01:48:41.110Z,17.1
2015-03-25T01:48:59.578Z,17.1
2015-03-25T01:49:17.953Z,17.1
2015-03-25T01:49:36.299Z,17.1
2015-03-25T01:49:54.799Z,17.1
2015-03-25T01:50:13.315Z,17.1
2015-03-25T01:50:31.927Z,17.1
2015-03-25T01:50:50.474Z,17.1
2015-03-25T01:51:08.849Z,17.1
2015-03-25T01:51:27.414Z,17.1
2015-03-25T01:51:45.976Z,17.1
2015-03-25T01:52:04.632Z,17.1
2015-03-25T01:52:23.259Z,17.1
2015-03-25T01:52:41.869Z,17.1
2015-03-25T01:53:00.228Z,17.1
2015-03-25T01:53:18.681Z,17.1
2015-03-25T01:53:37.075Z,17.1
2015-03-25T01:53:55.606Z,17.1
2015-03-25T01:54:14.169Z,17
2015-03-25T01:54:32.562Z,17
2015-03-25T01:54:50.922Z,17
2015-03-25T01:55:09.484Z,17
2015-03-25T01:55:27.924Z,17
2015-03-25T01:55:46.361Z,17
2015-03-25T01:56:04.752Z,17
2015-03-25T01:56:23.191Z,17
2015-03-25T01:56:41.676Z,17
2015-03-25T01:57:00.066Z,17
2015-03-25T01:57:18.566Z,17
2015-03-25T01:57:36.991Z,17
2015-03-25T01:57:55.382Z,17
2015-03-25T01:58:13.866Z,17
2015-03-25T01:58:32.226Z,17
2015-03-25T01:58:50.680Z,17
2015-03-25T01:59:09.086Z,17
2015-03-25T01:59:27.572Z,17
2015-03-25T01:59:45.932Z,17
2015-03-25T02:00:04.291Z,17
2015-03-25T02:00:22.653Z,17
2015-03-25T02:00:41.044Z,17
2015-03-25T02:00:59.435Z,17
2015-03-25T02:01:17.935Z,17
2015-03-25T02:01:36.313Z,17
2015-03-25T02:01:54.703Z,17
2015-03-25T02:02:13.063Z,17
2015-03-25T02:02:31.548Z,17
2015-03-25T02:02:49.939Z,17
2015-03-25T02:03:08.360Z,17
2015-03-25T02:03:26.754Z,17
2015-03-25T02:03:45.207Z,17
2015-03-25T02:04:03.707Z,17
2015-03-25T02:04:22.113Z,17
2015-03-25T02:04:40.522Z,17
2015-03-25T02:04:59.178Z,17
2015-03-25T02:05:17.615Z,17
2015-03-25T02:05:36.009Z,17
2015-03-25T02:05:54.384Z,17
2015-03-25T02:06:12.947Z,17
2015-03-25T02:06:34.589Z,17
2015-03-25T02:06:53.027Z,17
2015-03-25T02:07:11.402Z,17
2015-03-25T02:07:30.076Z,17
2015-03-25T02:07:48.513Z,17
2015-03-25T02:08:06.951Z,17
2015-03-25T02:08:25.312Z,17
2015-03-25T02:08:43.734Z,17
2015-03-25T02:09:02.218Z,17
2015-03-25T02:09:20.906Z,17
2015-03-25T02:09:39.284Z,17
2015-03-25T02:09:57.846Z,17
2015-03-25T02:10:16.268Z,17
2015-03-25T02:10:34.740Z,17
2015-03-25T02:10:53.115Z,17
2015-03-25T02:11:11.724Z,17
2015-03-25T02:11:30.164Z,17
2015-03-25T02:11:48.554Z,17
2015-03-25T02:12:06.914Z,17
2015-03-25T02:12:25.273Z,17
2015-03-25T02:12:43.791Z,16.9
2015-03-25T02:13:02.291Z,16.9
2015-03-25T02:13:20.650Z,16.9
2015-03-25T02:13:39.074Z,16.9
2015-03-25T02:13:57.621Z,16.9
2015-03-25T02:14:16.090Z,16.9
2015-03-25T02:14:34.451Z,16.9
2015-03-25T02:14:52.888Z,16.9
2015-03-25T02:15:11.498Z,16.9
2015-03-25T02:15:29.923Z,16.9
2015-03-25T02:15:48.501Z,16.9
2015-03-25T02:16:06.938Z,16.9
2015-03-25T02:16:25.516Z,16.9
2015-03-25T02:16:43.879Z,16.9
2015-03-25T02:17:02.254Z,16.9
2015-03-25T02:17:20.629Z,16.9
2015-03-25T02:17:39.006Z,16.9
2015-03-25T02:17:57.693Z,16.9
2015-03-25T02:18:16.068Z,16.9
2015-03-25T02:18:34.569Z,16.9
2015-03-25T02:18:52.929Z,16.9
2015-03-25T02:19:11.710Z,16.9
2015-03-25T02:19:30.322Z,16.9
2015-03-25T02:19:48.947Z,16.9
2015-03-25T02:20:07.510Z,16.9
2015-03-25T02:20:25.275Z,16.9
2015-03-25T02:20:43.887Z,16.9
2015-03-25T02:21:02.543Z,16.9
2015-03-25T02:21:20.981Z,16.9
2015-03-25T02:21:39.592Z,16.9
2015-03-25T02:21:57.420Z,16.9
2015-03-25T02:22:15.998Z,16.9
2015-03-25T02:22:34.439Z,16.9
2015-03-25T02:22:52.939Z,16.9
2015-03-25T02:23:11.361Z,16.9
2015-03-25T02:23:29.878Z,16.9
2015-03-25T02:23:48.238Z,16.9
2015-03-25T02:24:06.816Z,16.9
2015-03-25T02:24:25.175Z,16.9
2015-03-25T02:24:43.647Z,16.9
2015-03-25T02:25:02.053Z,16.9
2015-03-25T02:25:20.506Z,16.9
2015-03-25T02:25:39.118Z,16.9
2015-03-25T02:25:57.743Z,16.9
2015-03-25T02:26:16.180Z,16.9
2015-03-25T02:26:34.542Z,16.9
2015-03-25T02:26:53.011Z,16.9
2015-03-25T02:27:11.574Z,16.9
2015-03-25T02:27:29.933Z,16.8
2015-03-25T02:27:48.575Z,16.8
2015-03-25T02:28:07.168Z,16.8
2015-03-25T02:28:25.575Z,16.8
2015-03-25T02:28:43.968Z,16.8
2015-03-25T02:29:02.453Z,16.8
2015-03-25T02:29:20.890Z,16.8
2015-03-25T02:29:39.393Z,16.9
2015-03-25T02:29:57.737Z,16.9
2015-03-25T02:30:16.143Z,16.8
2015-03-25T02:30:34.613Z,16.8
2015-03-25T02:30:53.035Z,16.8
2015-03-25T02:31:11.394Z,16.8
2015-03-25T02:31:29.847Z,16.8
2015-03-25T02:31:47.725Z,16.8
2015-03-25T02:32:06.194Z,16.8
2015-03-25T02:32:24.632Z,16.8
2015-03-25T02:32:43.291Z,16.8
2015-03-25T02:33:01.728Z,16.8
2015-03-25T02:33:20.275Z,16.8
2015-03-25T02:33:38.898Z,16.8
2015-03-25T02:33:57.366Z,16.8
2015-03-25T02:34:15.773Z,16.8
2015-03-25T02:34:34.225Z,16.8
2015-03-25T02:34:52.694Z,16.8
2015-03-25T02:35:10.444Z,16.8
2015-03-25T02:35:28.834Z,16.8
2015-03-25T02:35:47.240Z,16.8
2015-03-25T02:36:05.943Z,16.8
2015-03-25T02:36:24.537Z,16.8
2015-03-25T02:36:42.911Z,16.8
2015-03-25T02:37:01.411Z,16.8
2015-03-25T02:37:19.974Z,16.7
2015-03-25T02:37:38.503Z,16.8
2015-03-25T02:37:57.003Z,16.8
2015-03-25T02:38:15.441Z,16.8
2015-03-25T02:38:33.870Z,16.7
2015-03-25T02:38:52.370Z,16.7
2015-03-25T02:39:10.807Z,16.7
2015-03-25T02:39:29.198Z,16.7
2015-03-25T02:39:47.752Z,16.7
2015-03-25T02:40:06.314Z,16.7
2015-03-25T02:40:24.689Z,16.7
2015-03-25T02:40:43.165Z,16.7
2015-03-25T02:41:01.571Z,16.7
2015-03-25T02:41:19.306Z,16.7
2015-03-25T02:41:38.031Z,16.6
2015-03-25T02:41:56.469Z,16.7
2015-03-25T02:42:15.000Z,16.6
2015-03-25T02:42:32.719Z,16.7
2015-03-25T02:42:51.163Z,16.7
2015-03-25T02:43:09.523Z,16.7
2015-03-25T02:43:27.398Z,16.6
2015-03-25T02:43:45.839Z,16.7
2015-03-25T02:44:04.292Z,16.7
2015-03-25T02:44:22.667Z,16.7
2015-03-25T02:44:41.218Z,16.7
2015-03-25T02:44:59.578Z,16.6
2015-03-25T02:45:18.000Z,16.6
2015-03-25T02:45:36.378Z,16.6
2015-03-25T02:45:54.815Z,16.6
2015-03-25T02:46:13.190Z,16.6
2015-03-25T02:46:31.612Z,16.6
2015-03-25T02:46:49.991Z,16.6
2015-03-25T02:47:08.350Z,16.6
2015-03-25T02:47:26.741Z,16.6
2015-03-25T02:47:45.245Z,16.6
2015-03-25T02:48:03.698Z,16.6
2015-03-25T02:48:22.167Z,16.6
2015-03-25T02:48:40.607Z,16.6
2015-03-25T02:48:59.201Z,16.6
2015-03-25T02:49:17.670Z,16.6
2015-03-25T02:49:35.701Z,16.6
2015-03-25T02:49:54.250Z,16.6
2015-03-25T02:50:12.937Z,16.6
2015-03-25T02:50:30.969Z,16.6
2015-03-25T02:50:49.456Z,16.6
2015-03-25T02:51:08.097Z,16.6
2015-03-25T02:51:26.675Z,16.6
2015-03-25T02:51:45.240Z,16.6
2015-03-25T02:52:03.959Z,16.6
2015-03-25T02:52:22.537Z,16.6
2015-03-25T02:52:41.040Z,16.6
2015-03-25T02:52:59.431Z,16.6
2015-03-25T02:53:18.040Z,16.6
2015-03-25T02:53:36.821Z,16.6
2015-03-25T02:53:55.214Z,16.6
2015-03-25T02:54:13.995Z,16.6
2015-03-25T02:54:32.667Z,16.6
2015-03-25T02:54:51.061Z,16.6
2015-03-25T02:55:09.655Z,16.6
2015-03-25T02:55:28.155Z,16.6
2015-03-25T02:55:46.673Z,16.6
2015-03-25T02:56:05.095Z,16.6
2015-03-25T02:56:23.720Z,16.6
2015-03-25T02:56:42.253Z,16.6
2015-03-25T02:57:00.613Z,16.6
2015-03-25T02:57:19.191Z,16.6
2015-03-25T02:57:37.628Z,16.6
2015-03-25T02:57:56.084Z,16.6
2015-03-25T02:58:14.584Z,16.6
2015-03-25T02:58:32.975Z,16.6
2015-03-25T02:58:51.493Z,16.6
2015-03-25T02:59:10.133Z,16.6
2015-03-25T02:59:27.961Z,16.6
2015-03-25T02:59:46.479Z,16.6
2015-03-25T03:00:04.838Z,16.6
2015-03-25T03:00:23.245Z,16.6
2015-03-25T03:00:41.873Z,16.6
2015-03-25T03:01:00.232Z,16.6
2015-03-25T03:01:18.295Z,16.6
2015-03-25T03:01:36.763Z,16.6
2015-03-25T03:01:55.359Z,16.6
2015-03-25T03:02:13.890Z,16.6
2015-03-25T03:02:32.734Z,16.6
2015-03-25T03:02:51.315Z,16.6
2015-03-25T03:03:09.675Z,16.6
2015-03-25T03:03:28.159Z,16.6
2015-03-25T03:03:46.770Z,16.6
2015-03-25T03:04:05.177Z,16.6
2015-03-25T03:04:23.645Z,16.6
2015-03-25T03:04:42.069Z,16.6
2015-03-25T03:04:59.882Z,16.6
2015-03-25T03:05:18.397Z,16.6
2015-03-25T03:05:37.069Z,16.6
2015-03-25T03:05:55.666Z,16.6
2015-03-25T03:06:14.353Z,16.6
2015-03-25T03:06:33.057Z,16.6
2015-03-25T03:06:51.512Z,16.6
2015-03-25T03:07:09.949Z,16.6
2015-03-25T03:07:28.387Z,16.6
2015-03-25T03:07:46.873Z,16.6
2015-03-25T03:08:05.326Z,16.6
2015-03-25T03:08:23.732Z,16.6
2015-03-25T03:08:42.154Z,16.6
2015-03-25T03:09:00.766Z,16.6
2015-03-25T03:09:19.344Z,16.6
2015-03-25T03:09:37.703Z,16.6
2015-03-25T03:09:56.191Z,16.6
2015-03-25T03:10:14.706Z,16.6
2015-03-25T03:10:33.191Z,16.6
2015-03-25T03:10:51.677Z,16.6
2015-03-25T03:11:10.114Z,16.6
2015-03-25T03:11:28.568Z,16.6
2015-03-25T03:11:47.038Z,16.6
2015-03-25T03:12:05.710Z,16.6
2015-03-25T03:12:24.288Z,16.6
2015-03-25T03:12:42.804Z,16.6
2015-03-25T03:13:01.182Z,16.6
2015-03-25T03:13:19.713Z,16.6
2015-03-25T03:13:38.323Z,16.6
2015-03-25T03:13:56.997Z,16.6
2015-03-25T03:14:15.419Z,16.6
2015-03-25T03:14:33.982Z,16.6
2015-03-25T03:14:52.374Z,16.6
2015-03-25T03:15:10.921Z,16.6
2015-03-25T03:15:29.468Z,16.6
2015-03-25T03:15:48.095Z,16.6
2015-03-25T03:16:06.517Z,16.6
2015-03-25T03:16:24.939Z,16.6
2015-03-25T03:16:43.345Z,16.6
2015-03-25T03:17:01.770Z,16.6
2015-03-25T03:17:20.301Z,16.6
2015-03-25T03:17:38.958Z,16.6
2015-03-25T03:17:57.318Z,16.6
2015-03-25T03:18:15.802Z,16.6
2015-03-25T03:18:34.427Z,16.6
2015-03-25T03:18:52.945Z,16.6
2015-03-25T03:19:11.539Z,16.6
2015-03-25T03:19:29.945Z,16.6
2015-03-25T03:19:48.448Z,16.6
2015-03-25T03:20:06.979Z,16.6
2015-03-25T03:20:25.401Z,16.6
2015-03-25T03:20:43.885Z,16.6
2015-03-25T03:21:02.575Z,16.6
2015-03-25T03:21:21.216Z,16.6
2015-03-25T03:21:39.059Z,16.6
2015-03-25T03:21:57.500Z,16.6
2015-03-25T03:22:16.031Z,16.6
2015-03-25T03:22:34.656Z,16.6
2015-03-25T03:22:53.221Z,16.6
2015-03-25T03:23:11.736Z,16.6
2015-03-25T03:23:30.127Z,16.6
2015-03-25T03:23:48.644Z,16.6
2015-03-25T03:24:07.004Z,16.6
2015-03-25T03:24:25.363Z,16.6
2015-03-25T03:24:43.988Z,16.6
2015-03-25T03:25:02.334Z,16.6
2015-03-25T03:25:20.740Z,16.6
2015-03-25T03:25:39.271Z,16.6
2015-03-25T03:25:57.774Z,16.6
2015-03-25T03:26:16.196Z,16.6
2015-03-25T03:26:34.056Z,16.6
2015-03-25T03:26:52.511Z,16.6
2015-03-25T03:27:11.026Z,16.6
2015-03-25T03:27:29.605Z,16.6
2015-03-25T03:27:48.139Z,16.6
2015-03-25T03:28:06.654Z,16.6
2015-03-25T03:28:24.998Z,16.6
2015-03-25T03:28:43.467Z,16.6
2015-03-25T03:29:02.031Z,16.6
2015-03-25T03:29:20.516Z,16.6
2015-03-25T03:29:38.875Z,16.6
2015-03-25T03:29:57.471Z,16.6
2015-03-25T03:30:15.924Z,16.6
2015-03-25T03:30:34.299Z,16.6
2015-03-25T03:30:52.910Z,16.6
2015-03-25T03:31:11.332Z,16.6
2015-03-25T03:31:29.989Z,16.6
2015-03-25T03:31:48.398Z,16.6
2015-03-25T03:32:06.867Z,16.6
2015-03-25T03:32:25.929Z,16.6
2015-03-25T03:32:44.492Z,16.6
2015-03-25T03:33:02.290Z,16.6
2015-03-25T03:33:20.697Z,16.6
2015-03-25T03:33:39.275Z,16.6
2015-03-25T03:33:57.856Z,16.6
2015-03-25T03:34:16.247Z,16.6
2015-03-25T03:34:34.606Z,16.6
2015-03-25T03:34:53.044Z,16.6
2015-03-25T03:35:11.404Z,16.6
2015-03-25T03:35:29.779Z,16.6
2015-03-25T03:35:48.388Z,16.6
2015-03-25T03:36:06.751Z,16.6
2015-03-25T03:36:25.204Z,16.6
2015-03-25T03:36:43.766Z,16.5
2015-03-25T03:37:02.144Z,16.6
2015-03-25T03:37:20.504Z,16.5
2015-03-25T03:37:39.144Z,16.6
2015-03-25T03:37:57.520Z,16.5
2015-03-25T03:38:15.895Z,16.6
2015-03-25T03:38:34.458Z,16.5
2015-03-25T03:38:52.976Z,16.5
2015-03-25T03:39:11.336Z,16.5
2015-03-25T03:39:29.695Z,16.5
2015-03-25T03:39:48.054Z,16.6
2015-03-25T03:40:06.416Z,16.6
2015-03-25T03:40:24.775Z,16.6
2015-03-25T03:40:42.494Z,16.6
2015-03-25T03:41:01.074Z,16.6
2015-03-25T03:41:19.433Z,16.6
2015-03-25T03:41:37.855Z,16.6
2015-03-25T03:41:56.249Z,16.6
2015-03-25T03:42:14.608Z,16.5
2015-03-25T03:42:32.999Z,16.5
2015-03-25T03:42:51.358Z,16.5
2015-03-25T03:43:09.720Z,16.5
2015-03-25T03:43:28.079Z,16.5
2015-03-25T03:43:46.485Z,16.5
2015-03-25T03:44:04.878Z,16.5
2015-03-25T03:44:23.409Z,16.5
2015-03-25T03:44:41.800Z,16.5
2015-03-25T03:45:00.162Z,16.5
2015-03-25T03:45:18.631Z,16.5
2015-03-25T03:45:36.990Z,16.5
2015-03-25T03:45:55.352Z,16.5
2015-03-25T03:46:13.961Z,16.5
2015-03-25T03:46:32.320Z,16.5
2015-03-25T03:46:50.711Z,16.5
2015-03-25T03:47:09.105Z,16.5
2015-03-25T03:47:27.495Z,16.5
2015-03-25T03:47:45.855Z,16.5
2015-03-25T03:48:04.247Z,16.5
2015-03-25T03:48:22.732Z,16.5
2015-03-25T03:48:41.091Z,16.5
2015-03-25T03:48:59.702Z,16.5
2015-03-25T03:49:18.249Z,16.5
2015-03-25T03:49:36.609Z,16.5
2015-03-25T03:49:54.327Z,16.5
2015-03-25T03:50:12.814Z,16.5
2015-03-25T03:50:31.173Z,16.5
2015-03-25T03:50:49.595Z,16.5
2015-03-25T03:51:07.973Z,16.5
2015-03-25T03:51:26.332Z,16.5
2015-03-25T03:51:44.723Z,16.5
2015-03-25T03:52:03.069Z,16.5
2015-03-25T03:52:21.444Z,16.5
2015-03-25T03:52:39.803Z,16.5
2015-03-25T03:52:58.194Z,16.5
2015-03-25T03:53:16.555Z,16.5
2015-03-25T03:53:35.086Z,16.5
2015-03-25T03:53:53.633Z,16.5
2015-03-25T03:54:12.011Z,16.5
2015-03-25T03:54:30.371Z,16.5
2015-03-25T03:54:48.871Z,16.5
2015-03-25T03:55:07.310Z,16.5
2015-03-25T03:55:25.716Z,16.5
2015-03-25T03:55:44.076Z,16.5
2015-03-25T03:56:02.548Z,16.6
2015-03-25T03:56:20.907Z,16.6
2015-03-25T03:56:39.266Z,16.5
2015-03-25T03:56:57.688Z,16.6
2015-03-25T03:57:16.175Z,16.6
2015-03-25T03:57:34.612Z,16.6
2015-03-25T03:57:52.987Z,16.6
2015-03-25T03:58:11.442Z,16.6
2015-03-25T03:58:30.052Z,16.6
2015-03-25T03:58:48.645Z,16.6
2015-03-25T03:59:07.194Z,16.6
2015-03-25T03:59:25.647Z,16.6
2015-03-25T03:59:44.007Z,16.6
2015-03-25T04:00:02.385Z,16.6
2015-03-25T04:00:20.838Z,16.6
2015-03-25T04:00:39.291Z,16.6
2015-03-25T04:00:57.760Z,16.6
2015-03-25T04:01:16.168Z,16.6
2015-03-25T04:01:34.559Z,16.6
2015-03-25T04:01:52.949Z,16.6
2015-03-25T04:02:11.498Z,16.6
2015-03-25T04:02:30.076Z,16.6
2015-03-25T04:02:48.436Z,16.6
2015-03-25T04:03:06.814Z,16.6
2015-03-25T04:03:25.204Z,16.6
2015-03-25T04:03:43.595Z,16.6
2015-03-25T04:04:01.970Z,16.6
2015-03-25T04:04:20.394Z,16.6
2015-03-25T04:04:38.769Z,16.6
2015-03-25T04:04:56.503Z,16.6
2015-03-25T04:05:15.225Z,16.6
2015-03-25T04:05:33.600Z,16.6
2015-03-25T04:05:52.100Z,16.6
2015-03-25T04:06:10.491Z,16.6
2015-03-25T04:06:28.976Z,16.6
2015-03-25T04:06:47.351Z,16.6
2015-03-25T04:07:05.713Z,16.6
2015-03-25T04:07:24.088Z,16.6